createdAt,value
2023-03-10T00:00:00.000Z,10.2
2023-03-10T00:02:51.000Z,12
2023-03-10T00:06:24.000Z,14.6
2023-03-10T00:09:57.000Z,11.8
2023-03-10T00:13:29.000Z,10.8
2023-03-10T00:17:02.000Z,11.5
2023-03-10T00:20:34.000Z,8.5
2023-03-10T00:24:07.000Z,9.8
2023-03-10T00:27:40.000Z,8.1
2023-03-10T00:31:12.000Z,7.3
2023-03-10T00:34:45.000Z,12.7
2023-03-10T00:38:18.000Z,8.8
2023-03-10T00:41:09.000Z,18.2
2023-03-10T00:44:42.000Z,11.6
2023-03-10T00:48:15.000Z,10.2
2023-03-10T00:51:47.000Z,7.9
2023-03-10T00:55:20.000Z,11.2
2023-03-10T00:58:53.000Z,7.7
2023-03-10T01:02:25.000Z,6.7
2023-03-10T01:05:58.000Z,6.9
2023-03-10T01:09:31.000Z,7.5
2023-03-10T01:13:03.000Z,7.1
2023-03-10T01:16:36.000Z,7.6
2023-03-10T01:19:27.000Z,6.3
2023-03-10T01:23:00.000Z,7.6
2023-03-10T01:26:32.000Z,5.2
2023-03-10T01:30:05.000Z,6.9
2023-03-10T01:33:38.000Z,5.7
2023-03-10T01:37:10.000Z,6
2023-03-10T01:40:43.000Z,4.6
2023-03-10T01:44:15.000Z,6.3
2023-03-10T01:47:48.000Z,3.6
2023-03-10T01:51:21.000Z,4.2
2023-03-10T01:54:53.000Z,5.1
2023-03-10T01:57:45.000Z,3.3
2023-03-10T02:01:17.000Z,4.7
2023-03-10T02:04:50.000Z,3.3
2023-03-10T02:08:22.000Z,3.2
2023-03-10T02:11:55.000Z,3.5
2023-03-10T02:15:28.000Z,3.8
2023-03-10T02:19:00.000Z,4.5
2023-03-10T02:22:33.000Z,3.8
2023-03-10T02:26:06.000Z,3.1
2023-03-10T02:29:38.000Z,4.2
2023-03-10T02:33:24.000Z,4.3
2023-03-10T02:36:15.000Z,3.3
2023-03-10T02:39:47.000Z,2
2023-03-10T02:43:20.000Z,3
2023-03-10T02:46:53.000Z,5.9
2023-03-10T02:50:27.000Z,3.2
2023-03-10T02:53:59.000Z,2.3
2023-03-10T02:57:32.000Z,3.5
2023-03-10T03:01:05.000Z,3.1
2023-03-10T03:04:38.000Z,2.4
2023-03-10T03:08:10.000Z,3
2023-03-10T03:11:43.000Z,1.5
2023-03-10T03:14:34.000Z,1.9
2023-03-10T03:18:06.000Z,2.1
2023-03-10T03:21:39.000Z,1.5
2023-03-10T03:25:12.000Z,1.2
2023-03-10T03:28:44.000Z,2.8
2023-03-10T03:32:20.000Z,1.9
2023-03-10T03:35:53.000Z,1.9
2023-03-10T03:39:26.000Z,2.4
2023-03-10T03:42:59.000Z,3.3
2023-03-10T03:46:31.000Z,2.7
2023-03-10T03:50:04.000Z,2.9
2023-03-10T03:52:55.000Z,2.6
2023-03-10T03:56:27.000Z,3.6
2023-03-10T04:00:00.000Z,4.7
2023-03-10T04:03:33.000Z,4.1
2023-03-10T04:07:05.000Z,4.3
2023-03-10T04:10:38.000Z,4.4
2023-03-10T04:14:11.000Z,4.6
2023-03-10T04:17:43.000Z,4.7
2023-03-10T04:21:16.000Z,4.3
2023-03-10T04:24:49.000Z,5
2023-03-10T04:28:21.000Z,2.1
2023-03-10T04:31:13.000Z,2.1
2023-03-10T04:34:48.000Z,3.3
2023-03-10T04:38:20.000Z,4.3
2023-03-10T04:41:53.000Z,2.6
2023-03-10T04:45:26.000Z,3
2023-03-10T04:48:58.000Z,3.1
2023-03-10T04:52:31.000Z,2
2023-03-10T04:56:04.000Z,2.8
2023-03-10T04:59:36.000Z,3.9
2023-03-10T05:03:09.000Z,3.4
2023-03-10T05:06:42.000Z,4.5
2023-03-10T05:09:33.000Z,4.3
2023-03-10T05:13:06.000Z,5.2
2023-03-10T05:16:39.000Z,4.8
2023-03-10T05:20:11.000Z,6.6
2023-03-10T05:23:44.000Z,4.8
2023-03-10T05:27:17.000Z,5
2023-03-10T05:30:49.000Z,7.9
2023-03-10T05:34:22.000Z,8.7
2023-03-10T05:37:55.000Z,7.1
2023-03-10T05:41:28.000Z,7.6
2023-03-10T05:45:00.000Z,7.7
2023-03-10T05:47:52.000Z,6.9
2023-03-10T05:51:24.000Z,8.3
2023-03-10T05:54:57.000Z,5.9
2023-03-10T05:58:30.000Z,5.9
2023-03-10T06:02:02.000Z,7.3
2023-03-10T06:05:35.000Z,10.1
2023-03-10T06:09:08.000Z,8.6
2023-03-10T06:12:41.000Z,8.2
2023-03-10T06:16:13.000Z,8.5
2023-03-10T06:19:46.000Z,6.3
2023-03-10T06:23:19.000Z,7.6
2023-03-10T06:26:10.000Z,9.3
2023-03-10T06:29:42.000Z,10.3
2023-03-10T06:33:15.000Z,7.5
2023-03-10T06:36:48.000Z,5.6
2023-03-10T06:40:20.000Z,8.6
2023-03-10T06:43:53.000Z,12
2023-03-10T06:47:26.000Z,9
2023-03-10T06:50:58.000Z,9.5
2023-03-10T06:54:31.000Z,11.4
2023-03-10T06:58:03.000Z,10
2023-03-10T07:01:36.000Z,10.8
2023-03-10T07:04:27.000Z,8.4
2023-03-10T07:08:00.000Z,7.6
2023-03-10T07:11:33.000Z,7.9
2023-03-10T07:15:05.000Z,8.6
2023-03-10T07:18:38.000Z,6.5
2023-03-10T07:22:11.000Z,18.7
2023-03-10T07:25:43.000Z,8.6
2023-03-10T07:29:16.000Z,8.1
2023-03-10T07:32:49.000Z,6.2
2023-03-10T07:36:22.000Z,9.5
2023-03-10T07:39:54.000Z,7.6
2023-03-10T07:42:46.000Z,5.4
2023-03-10T07:46:18.000Z,7.1
2023-03-10T07:49:51.000Z,5.3
2023-03-10T07:53:24.000Z,10.5
2023-03-10T07:56:57.000Z,8.8
2023-03-10T08:00:29.000Z,7.1
2023-03-10T08:04:02.000Z,7.3
2023-03-10T08:07:35.000Z,8.1
2023-03-10T08:11:08.000Z,10.3
2023-03-10T08:14:41.000Z,5.8
2023-03-10T08:18:13.000Z,7.9
2023-03-10T08:21:05.000Z,9.1
2023-03-10T08:24:38.000Z,7.6
2023-03-10T08:28:10.000Z,44.2
2023-03-10T08:31:43.000Z,7.8
2023-03-10T08:35:16.000Z,5.4
2023-03-10T08:38:49.000Z,8.6
2023-03-10T08:42:21.000Z,5.3
2023-03-10T08:45:54.000Z,5.5
2023-03-10T08:49:30.000Z,8.5
2023-03-10T08:53:03.000Z,7.1
2023-03-10T08:56:36.000Z,5.4
2023-03-10T08:59:27.000Z,8.2
2023-03-10T09:02:59.000Z,7.4
2023-03-10T09:06:32.000Z,7.1
2023-03-10T09:10:05.000Z,9.3
2023-03-10T09:13:38.000Z,5.8
2023-03-10T09:17:10.000Z,6.2
2023-03-10T09:20:43.000Z,5.3
2023-03-10T09:24:15.000Z,6.4
2023-03-10T09:27:48.000Z,8
2023-03-10T09:31:40.000Z,9.3
2023-03-10T09:35:13.000Z,7.1
2023-03-10T09:38:04.000Z,8.4
2023-03-10T09:41:37.000Z,7.7
2023-03-10T09:45:10.000Z,11
2023-03-10T09:48:42.000Z,9.7
2023-03-10T09:52:15.000Z,7.8
2023-03-10T09:55:48.000Z,7.1
2023-03-10T09:59:21.000Z,5.8
2023-03-10T10:02:54.000Z,5.8
2023-03-10T10:06:26.000Z,6.6
2023-03-10T10:09:59.000Z,4.4
2023-03-10T10:13:32.000Z,4.3
2023-03-10T10:16:26.000Z,4.2
2023-03-10T10:20:16.000Z,2
2023-03-10T10:23:49.000Z,4.1
2023-03-10T10:27:21.000Z,5.4
2023-03-10T10:30:55.000Z,5.2
2023-03-10T10:34:28.000Z,6
2023-03-10T10:38:01.000Z,3.7
2023-03-10T10:41:34.000Z,7
2023-03-10T10:45:06.000Z,5.3
2023-03-10T10:48:39.000Z,5.3
2023-03-10T10:52:11.000Z,4.9
2023-03-10T10:55:03.000Z,5.9
2023-03-10T10:58:35.000Z,5.5
2023-03-10T11:02:08.000Z,7
2023-03-10T11:05:40.000Z,7
2023-03-10T11:09:13.000Z,6.8
2023-03-10T11:12:46.000Z,9.5
2023-03-10T11:16:19.000Z,7
2023-03-10T11:19:52.000Z,8.2
2023-03-10T11:23:24.000Z,7.1
2023-03-10T11:26:57.000Z,7.7
2023-03-10T11:30:29.000Z,8.2
2023-03-10T11:33:20.000Z,7.8
2023-03-10T11:36:53.000Z,4.9
2023-03-10T11:40:26.000Z,7.3
2023-03-10T11:43:58.000Z,5.1
2023-03-10T11:47:31.000Z,5
2023-03-10T11:51:07.000Z,8.7
2023-03-10T11:54:39.000Z,6.2
2023-03-10T11:58:12.000Z,4.9
2023-03-10T12:01:45.000Z,4.3
2023-03-10T12:05:17.000Z,5.7
2023-03-10T12:08:50.000Z,7
2023-03-10T12:11:42.000Z,3.9
2023-03-10T12:15:14.000Z,5.9
2023-03-10T12:18:47.000Z,4.7
2023-03-10T12:22:20.000Z,2.5
2023-03-10T12:25:53.000Z,3.9
2023-03-10T12:29:25.000Z,3
2023-03-10T12:32:58.000Z,5.1
2023-03-10T12:36:31.000Z,4.6
2023-03-10T12:40:03.000Z,3.5
2023-03-10T12:43:36.000Z,4.5
2023-03-10T12:47:08.000Z,2.6
2023-03-10T12:50:00.000Z,2.5
2023-03-10T12:53:32.000Z,5.6
2023-03-10T12:57:05.000Z,2
2023-03-10T13:00:38.000Z,1.8
2023-03-10T13:04:11.000Z,2.1
2023-03-10T13:07:43.000Z,1.8
2023-03-10T13:11:16.000Z,2.5
2023-03-10T13:14:49.000Z,2.9
2023-03-10T13:18:22.000Z,1.6
2023-03-10T13:21:54.000Z,2.4
2023-03-10T13:25:27.000Z,2
2023-03-10T13:28:18.000Z,2.7
2023-03-10T13:31:51.000Z,1.4
2023-03-10T13:35:25.000Z,2
2023-03-10T13:38:57.000Z,3.3
2023-03-10T13:42:30.000Z,0.9
2023-03-10T13:46:09.000Z,1.9
2023-03-10T13:49:42.000Z,2.8
2023-03-10T13:53:15.000Z,3.4
2023-03-10T13:56:48.000Z,1.5
2023-03-10T14:00:20.000Z,3.4
2023-03-10T14:03:53.000Z,3.4
2023-03-10T14:06:44.000Z,3.1
2023-03-10T14:10:17.000Z,2.2
2023-03-10T14:13:50.000Z,1.3
2023-03-10T14:17:22.000Z,1.9
2023-03-10T14:20:55.000Z,2
2023-03-10T14:24:28.000Z,1.5
2023-03-10T14:28:00.000Z,3.4
2023-03-10T14:31:33.000Z,1.2
2023-03-10T14:35:06.000Z,1.1
2023-03-10T14:38:38.000Z,0.8
2023-03-10T14:42:12.000Z,2.4
2023-03-10T14:45:03.000Z,2.3
2023-03-10T14:48:36.000Z,1.5
2023-03-10T14:52:08.000Z,0.6
2023-03-10T14:55:41.000Z,0.5
2023-03-10T14:59:14.000Z,0.5
2023-03-10T15:02:46.000Z,1
2023-03-10T15:06:19.000Z,0.4
2023-03-10T15:09:52.000Z,1.7
2023-03-10T15:13:36.000Z,0.6
2023-03-10T15:17:09.000Z,0.5
2023-03-10T15:20:41.000Z,0.6
2023-03-10T15:23:33.000Z,1.4
2023-03-10T15:27:05.000Z,0.4
2023-03-10T15:30:38.000Z,0.4
2023-03-10T15:34:10.000Z,1.4
2023-03-10T15:37:45.000Z,1.6
2023-03-10T15:41:30.000Z,1.9
2023-03-10T15:45:03.000Z,0.9
2023-03-10T15:48:36.000Z,0.4
2023-03-10T15:52:08.000Z,0.5
2023-03-10T15:55:41.000Z,0.3
2023-03-10T15:59:14.000Z,0.7
2023-03-10T16:02:05.000Z,0.4
2023-03-10T16:05:38.000Z,1
2023-03-10T16:09:11.000Z,0.7
2023-03-10T16:12:43.000Z,0.6
2023-03-10T16:16:16.000Z,1.3
2023-03-10T16:19:49.000Z,1
2023-03-10T16:23:21.000Z,1
2023-03-10T16:26:54.000Z,0.5
2023-03-10T16:30:27.000Z,1.4
2023-03-10T16:34:00.000Z,1
2023-03-10T16:37:33.000Z,1.3
2023-03-10T16:40:24.000Z,0.6
2023-03-10T16:43:57.000Z,0.7
2023-03-10T16:47:29.000Z,1.1
2023-03-10T16:51:02.000Z,2
2023-03-10T16:54:35.000Z,3.5
2023-03-10T16:58:07.000Z,1.1
2023-03-10T17:01:40.000Z,1.2
2023-03-10T17:05:12.000Z,2.8
2023-03-10T17:08:45.000Z,2.6
2023-03-10T17:12:18.000Z,0.5
2023-03-10T17:15:50.000Z,1.4
2023-03-10T17:18:42.000Z,1.1
2023-03-10T17:22:14.000Z,0.7
2023-03-10T17:25:47.000Z,3.2
2023-03-10T17:29:23.000Z,3.5
2023-03-10T17:32:55.000Z,3.5
2023-03-10T17:36:28.000Z,2.2
2023-03-10T17:40:01.000Z,2.8
2023-03-10T17:43:33.000Z,2.2
2023-03-10T17:47:06.000Z,1.7
2023-03-10T17:50:39.000Z,1.2
2023-03-10T17:54:11.000Z,2.6
2023-03-10T17:57:03.000Z,2.3
2023-03-10T18:00:35.000Z,0.9
2023-03-10T18:04:08.000Z,2
2023-03-10T18:07:41.000Z,1.2
2023-03-10T18:11:14.000Z,1.5
2023-03-10T18:14:46.000Z,0.5
2023-03-10T18:18:19.000Z,1.2
2023-03-10T18:21:52.000Z,0.9
2023-03-10T18:25:24.000Z,1
2023-03-10T18:28:57.000Z,0.7
2023-03-10T18:32:30.000Z,1.1
2023-03-10T18:35:21.000Z,1.4
2023-03-10T18:38:53.000Z,2.1
2023-03-10T18:42:26.000Z,2.3
2023-03-10T18:45:59.000Z,1.6
2023-03-10T18:49:32.000Z,1.5
2023-03-10T18:53:05.000Z,2.1
2023-03-10T18:56:37.000Z,1
2023-03-10T19:00:10.000Z,1.2
2023-03-10T19:03:43.000Z,1
2023-03-10T19:07:16.000Z,0.8
2023-03-10T19:10:52.000Z,0.8
2023-03-10T19:13:43.000Z,0.5
2023-03-10T19:17:15.000Z,0.5
2023-03-10T19:20:48.000Z,0.5
2023-03-10T19:24:20.000Z,0.8
2023-03-10T19:27:53.000Z,0.9
2023-03-10T19:31:26.000Z,1.2
2023-03-10T19:34:58.000Z,1.6
2023-03-10T19:38:31.000Z,1.8
2023-03-10T19:42:04.000Z,1.6
2023-03-10T19:45:36.000Z,3
2023-03-10T19:49:09.000Z,1.8
2023-03-10T19:52:00.000Z,2.3
2023-03-10T19:55:33.000Z,2.2
2023-03-10T19:59:05.000Z,2.2
2023-03-10T20:02:38.000Z,2.6
2023-03-10T20:06:11.000Z,4.1
2023-03-10T20:09:44.000Z,2.8
2023-03-10T20:13:18.000Z,3.2
2023-03-10T20:16:51.000Z,3
2023-03-10T20:20:23.000Z,4.1
2023-03-10T20:23:56.000Z,3.3
2023-03-10T20:27:28.000Z,3.1
2023-03-10T20:30:20.000Z,3
2023-03-10T20:33:53.000Z,2.8
2023-03-10T20:37:25.000Z,2.8
2023-03-10T20:40:58.000Z,2.5
2023-03-10T20:44:31.000Z,2.9
2023-03-10T20:48:03.000Z,2.6
2023-03-10T20:51:36.000Z,3.1
2023-03-10T20:55:09.000Z,2.9
2023-03-10T20:58:41.000Z,3.3
2023-03-10T21:02:14.000Z,2.7
2023-03-10T21:05:46.000Z,3.4
2023-03-10T21:08:38.000Z,3.2
2023-03-10T21:12:11.000Z,3.7
2023-03-10T21:15:43.000Z,4.9
2023-03-10T21:19:16.000Z,4.2
2023-03-10T21:22:49.000Z,5.9
2023-03-10T21:26:21.000Z,4.8
2023-03-10T21:29:54.000Z,5.8
2023-03-10T21:33:27.000Z,5.3
2023-03-10T21:36:59.000Z,6.2
2023-03-10T21:40:32.000Z,5.3
2023-03-10T21:44:05.000Z,6.3
2023-03-10T21:46:56.000Z,6
2023-03-10T21:50:28.000Z,6.1
2023-03-10T21:54:01.000Z,5.4
2023-03-10T21:57:33.000Z,6
2023-03-10T22:01:06.000Z,6.1
2023-03-10T22:04:39.000Z,5.8
2023-03-10T22:08:11.000Z,5.5
2023-03-10T22:11:44.000Z,6.2
2023-03-10T22:15:17.000Z,6.8
2023-03-10T22:18:49.000Z,6.4
2023-03-10T22:22:22.000Z,6.6
2023-03-10T22:25:13.000Z,6.5
2023-03-10T22:28:46.000Z,5.2
2023-03-10T22:32:18.000Z,5
2023-03-10T22:35:51.000Z,5.2
2023-03-10T22:39:24.000Z,4.4
2023-03-10T22:42:56.000Z,5.6
2023-03-10T22:46:29.000Z,5.7
2023-03-10T22:50:02.000Z,5.4
2023-03-10T22:53:34.000Z,5.9
2023-03-10T22:57:07.000Z,6.1
2023-03-10T23:00:39.000Z,5.2
2023-03-10T23:03:30.000Z,6
2023-03-10T23:07:03.000Z,6
2023-03-10T23:10:36.000Z,6.3
2023-03-10T23:14:08.000Z,5.9
2023-03-10T23:17:41.000Z,6.1
2023-03-10T23:21:14.000Z,6
2023-03-10T23:24:46.000Z,6.7
2023-03-10T23:28:19.000Z,5.9
2023-03-10T23:31:52.000Z,6.9
2023-03-10T23:35:24.000Z,7
2023-03-10T23:38:57.000Z,6.2
2023-03-10T23:41:48.000Z,6.1
2023-03-10T23:45:21.000Z,5.2
2023-03-10T23:48:54.000Z,4.9
2023-03-10T23:52:26.000Z,5.4
2023-03-10T23:55:59.000Z,5
2023-03-10T23:59:32.000Z,4.6
